KLUL/LUL METAR and TAF weather

Enter ICAO airport designator
Station Type Date Time Source
KLUL METAR 2019/08/24 06:55 UTC NOAA

KLUL 240655Z AUTO 00000KT 10SM CLR 24/24 A2998 RMK A02 T02440240


Station Type Date Time Source
KLUL Decoded METAR 2019/08/24 06:55 UTC NOAA

Station name not available
Aug 24, 2019 - 02:55 AM EDT / 2019.08.24 0655 UTC
Wind: Calm:0
Visibility: 10 mile(s):0
Sky conditions: clear
Temperature: 75.9 F (24.4 C)
Dew Point: 75.2 F (24.0 C)
Relative Humidity: 97%
Pressure (altimeter): 29.98 in. Hg (1015 hPa)
ob: KLUL 240655Z AUTO 00000KT 10SM CLR 24/24 A2998 RMK A02 T02440240
cycle: 7

Station Type Date Time Source
KLUL TAF UTC NOAA

Error!

Example: see airport list